Time;durP1;ratioP1;P1;durP2;ratioP2;P2;SDS_P1;SDS_P2;PMS_P1;PMS_P2;Temp;Humidity;BMP_temperature;BMP_pressure;BME280_temperature;BME280_humidity;BME280_pressure;Samples;Min_cycle;Max_cycle;Signal;HPM_P1;HPM_P2
2022/11/05 00:10:53;;;;;;;7.82;1.75;;;6.20;76.20;;;;;;4199573;28;20032;-85
2022/11/05 00:18:17;;;;;;;7.80;2.08;;;6.30;76.80;;;;;;4200187;28;19976;-85
2022/11/05 00:20:37;;;;;;;11.52;2.20;;;6.20;76.10;;;;;;4197982;28;20031;-85
2022/11/05 00:25:51;;;;;;;7.30;2.03;;;6.10;75.90;;;;;;4199839;28;20513;-85
2022/11/05 00:27:52;;;;;;;11.32;1.83;;;6.10;75.90;;;;;;4194866;28;20021;-86
2022/11/05 00:29:53;;;;;;;11.23;2.17;;;6.10;75.90;;;;;;4192639;28;20626;-85
2022/11/05 00:31:54;;;;;;;8.57;1.42;;;6.10;76.00;;;;;;4191920;28;20024;-85
2022/11/05 00:33:54;;;;;;;7.57;1.88;;;6.10;76.20;;;;;;4209350;28;20047;-84
2022/11/05 00:35:55;;;;;;;14.18;1.90;;;6.10;76.10;;;;;;4180911;28;20110;-85
2022/11/05 00:37:56;;;;;;;14.00;2.30;;;6.10;76.20;;;;;;4198584;28;20417;-85
2022/11/05 00:39:57;;;;;;;13.25;2.30;;;6.00;76.20;;;;;;4200012;28;20101;-85
2022/11/05 00:46:36;;;;;;;12.55;1.80;;;6.00;76.10;;;;;;4198979;28;20103;-85
2022/11/05 00:50:57;;;;;;;9.40;1.50;;;6.00;76.20;;;;;;4198100;28;20024;-85
2022/11/05 00:52:59;;;;;;;12.48;1.55;;;6.00;76.20;;;;;;4194130;28;20031;-84
2022/11/05 00:55:00;;;;;;;15.90;1.80;;;6.00;76.20;;;;;;4197654;28;20039;-84
2022/11/05 00:57:00;;;;;;;14.05;1.55;;;6.00;76.30;;;;;;4201341;28;20024;-85
2022/11/05 00:59:01;;;;;;;16.42;2.05;;;6.10;76.40;;;;;;4194653;28;20056;-85
2022/11/05 01:01:03;;;;;;;10.00;1.23;;;6.00;76.30;;;;;;4175179;28;20028;-84
2022/11/05 01:03:35;;;;;;;8.93;1.48;;;6.00;76.20;;;;;;4193469;28;20049;-85
2022/11/05 01:05:40;;;;;;;6.00;0.90;;;6.00;76.30;;;;;;4191253;28;20123;-85
2022/11/05 01:07:55;;;;;;;12.10;2.13;;;6.00;76.20;;;;;;4181963;28;20100;-84
2022/11/05 01:10:15;;;;;;;15.75;1.30;;;6.00;76.30;;;;;;4198512;28;20040;-83
2022/11/05 01:12:36;;;;;;;13.95;1.00;;;6.00;76.20;;;;;;4197607;28;20038;-84
2022/11/05 01:14:57;;;;;;;7.22;1.10;;;6.00;76.30;;;;;;4188558;28;20028;-85
2022/11/05 01:17:18;;;;;;;11.40;1.30;;;6.00;76.20;;;;;;4190287;28;20042;-84
2022/11/05 01:19:39;;;;;;;8.60;1.08;;;6.10;76.30;;;;;;4192746;28;20040;-86
2022/11/05 01:21:59;;;;;;;11.27;1.48;;;6.20;76.30;;;;;;4188144;28;20119;-85
2022/11/05 01:24:20;;;;;;;6.85;1.42;;;6.00;76.20;;;;;;4187155;28;20052;-86
2022/11/05 01:26:40;;;;;;;6.35;1.60;;;6.00;76.20;;;;;;4186996;28;20427;-86
2022/11/05 01:28:41;;;;;;;9.18;1.27;;;6.00;76.20;;;;;;4189021;28;20032;-87
2022/11/05 01:30:42;;;;;;;12.25;1.70;;;6.20;76.30;;;;;;4186247;28;20025;-87
2022/11/05 01:32:43;;;;;;;13.02;1.58;;;6.00;76.20;;;;;;4186738;28;20078;-84
2022/11/05 01:34:43;;;;;;;9.98;1.70;;;6.00;76.20;;;;;;4196361;28;20024;-84
2022/11/05 01:36:44;;;;;;;10.02;1.20;;;6.00;76.30;;;;;;4211478;28;20027;-86
2022/11/05 01:38:45;;;;;;;13.48;1.20;;;6.00;76.20;;;;;;4179265;28;20158;-84
2022/11/05 01:40:45;;;;;;;7.70;1.63;;;5.90;76.10;;;;;;4194695;28;20039;-84
2022/11/05 01:43:14;;;;;;;12.27;1.42;;;6.10;76.30;;;;;;4197094;28;20028;-84
2022/11/05 01:45:35;;;;;;;7.78;1.35;;;6.00;76.20;;;;;;4201050;28;20078;-86
2022/11/05 01:48:05;;;;;;;9.23;1.20;;;6.00;76.20;;;;;;4196064;28;20040;-85
2022/11/05 01:50:26;;;;;;;6.68;1.17;;;6.00;76.30;;;;;;4220793;28;20073;-84
2022/11/05 01:52:31;;;;;;;6.00;1.00;;;6.00;76.20;;;;;;4211879;28;20130;-84
2022/11/05 01:54:33;;;;;;;8.32;1.00;;;5.90;76.10;;;;;;4183884;28;20080;-85
2022/11/05 01:56:39;;;;;;;8.20;1.30;;;6.10;76.00;;;;;;4197926;28;20027;-85
2022/11/05 01:58:58;;;;;;;9.60;1.45;;;6.10;76.70;;;;;;4192635;28;20028;-85
2022/11/05 02:00:59;;;;;;;4.57;0.88;;;6.00;75.90;;;;;;4220613;28;20044;-85
2022/11/05 02:03:01;;;;;;;8.60;1.35;;;6.00;75.80;;;;;;4206685;28;20090;-84
2022/11/05 02:05:05;;;;;;;11.10;1.38;;;6.00;75.80;;;;;;4190470;28;20039;-85
2022/11/05 02:07:13;;;;;;;12.73;1.90;;;5.90;75.60;;;;;;4200832;28;20674;-85
2022/11/05 02:09:20;;;;;;;10.68;1.55;;;5.90;75.60;;;;;;4197692;28;20065;-86
2022/11/05 02:11:25;;;;;;;10.07;1.05;;;5.90;75.60;;;;;;4203167;28;20752;-86
2022/11/05 02:13:47;;;;;;;7.88;1.30;;;6.00;75.80;;;;;;4203622;28;20118;-85
2022/11/05 02:16:16;;;;;;;8.55;1.27;;;6.00;75.80;;;;;;4200617;28;20021;-86
2022/11/05 02:18:49;;;;;;;5.68;0.88;;;5.90;75.70;;;;;;4204271;28;20032;-84
2022/11/05 02:21:46;;;;;;;8.55;1.13;;;5.80;75.70;;;;;;4202232;28;20086;-85
2022/11/05 02:24:09;;;;;;;6.95;1.30;;;5.90;75.70;;;;;;4171665;28;20032;-85
2022/11/05 02:26:55;;;;;;;8.98;1.23;;;5.90;75.70;;;;;;4204210;28;20687;-85
2022/11/05 02:30:04;;;;;;;9.82;1.60;;;5.80;75.50;;;;;;4199259;28;20032;-86
2022/11/05 02:32:43;;;;;;;6.75;1.33;;;5.80;75.70;;;;;;4198617;28;22269;-85
2022/11/05 02:35:25;;;;;;;11.68;1.35;;;5.80;75.40;;;;;;4201064;28;20020;-86
2022/11/05 02:37:52;;;;;;;6.97;1.30;;;5.80;75.50;;;;;;4199750;28;20039;-85
2022/11/05 02:40:33;;;;;;;4.78;1.13;;;5.80;75.40;;;;;;4203715;28;20037;-85
2022/11/05 02:43:13;;;;;;;8.35;1.70;;;5.80;75.50;;;;;;4204455;28;20163;-86
2022/11/05 02:45:44;;;;;;;11.88;1.70;;;5.80;75.50;;;;;;4201407;28;20032;-86
2022/11/05 02:48:06;;;;;;;9.63;1.10;;;5.70;75.50;;;;;;4198989;28;20089;-86
2022/11/05 02:50:09;;;;;;;5.18;0.90;;;5.70;75.50;;;;;;4186144;28;20062;-85
2022/11/05 02:52:19;;;;;;;6.93;1.17;;;5.70;75.50;;;;;;4204524;28;20016;-86
2022/11/05 02:54:30;;;;;;;15.15;0.98;;;5.70;75.50;;;;;;4203144;28;20424;-85
2022/11/05 02:56:38;;;;;;;9.50;0.98;;;5.70;75.70;;;;;;4203163;28;20085;-85
2022/11/05 02:58:39;;;;;;;8.75;1.30;;;5.70;75.90;;;;;;4202674;28;20077;-86
2022/11/05 03:00:54;;;;;;;9.80;1.17;;;5.70;76.10;;;;;;4199285;28;20678;-85
2022/11/05 03:02:55;;;;;;;8.43;1.58;;;5.70;76.40;;;;;;4200940;28;20376;-86
2022/11/05 03:04:55;;;;;;;7.53;1.20;;;5.70;76.60;;;;;;4205420;28;20503;-86
2022/11/05 03:07:11;;;;;;;10.52;1.65;;;5.70;76.80;;;;;;4205693;28;20070;-86
2022/11/05 03:09:24;;;;;;;8.65;1.65;;;5.70;77.10;;;;;;4181834;28;20047;-84
2022/11/05 03:11:28;;;;;;;7.35;1.20;;;5.80;77.20;;;;;;4189473;28;20067;-86
2022/11/05 03:13:57;;;;;;;9.35;1.20;;;5.80;77.20;;;;;;4191892;28;20464;-84
2022/11/05 03:16:06;;;;;;;12.10;1.20;;;5.80;77.80;;;;;;4184133;28;20075;-84
2022/11/05 03:18:45;;;;;;;11.02;1.20;;;5.80;77.30;;;;;;4192849;28;20116;-84
2022/11/05 03:20:50;;;;;;;7.07;1.27;;;5.80;77.60;;;;;;4187455;28;20102;-85
2022/11/05 03:23:02;;;;;;;7.32;1.10;;;5.80;77.20;;;;;;4199244;28;20024;-84
2022/11/05 03:25:11;;;;;;;8.20;1.45;;;5.90;77.20;;;;;;4199405;28;20115;-84
2022/11/05 03:27:18;;;;;;;11.43;1.23;;;5.90;77.30;;;;;;4211957;28;20072;-83
2022/11/05 03:29:25;;;;;;;16.02;1.70;;;5.90;77.30;;;;;;4214834;28;20036;-84
2022/11/05 03:31:48;;;;;;;12.35;1.50;;;5.90;77.30;;;;;;4197955;28;20028;-84
2022/11/05 03:34:11;;;;;;;12.32;1.98;;;5.90;77.30;;;;;;4202816;28;20028;-85
2022/11/05 03:36:41;;;;;;;9.63;1.70;;;5.90;77.30;;;;;;4201829;28;20082;-84
2022/11/05 03:39:06;;;;;;;9.35;1.30;;;5.90;77.20;;;;;;4201986;28;20028;-85
2022/11/05 03:41:14;;;;;;;11.18;1.33;;;5.90;77.20;;;;;;4204669;28;20028;-85
2022/11/05 03:43:39;;;;;;;11.75;1.30;;;5.90;77.30;;;;;;4220166;28;20040;-83
2022/11/05 03:46:14;;;;;;;8.05;1.17;;;6.00;77.40;;;;;;4213122;28;20100;-84
2022/11/05 03:48:45;;;;;;;9.07;1.10;;;5.90;77.20;;;;;;4197520;28;20040;-84
2022/11/05 03:51:22;;;;;;;8.68;1.15;;;5.90;77.30;;;;;;4203970;28;20024;-84
2022/11/05 03:53:48;;;;;;;4.68;1.17;;;5.90;77.90;;;;;;4200331;28;20028;-85
2022/11/05 03:56:51;;;;;;;5.30;1.00;;;6.00;77.30;;;;;;4201966;28;20040;-85
2022/11/05 03:59:12;;;;;;;10.43;1.23;;;5.90;77.30;;;;;;4201235;28;20032;-85
2022/11/05 04:01:36;;;;;;;5.38;1.33;;;5.90;77.30;;;;;;4201303;28;20153;-85
2022/11/05 04:03:57;;;;;;;6.53;1.00;;;5.90;77.10;;;;;;4197207;28;20043;-85
2022/11/05 04:14:15;;;;;;;4.40;0.90;;;5.90;77.40;;;;;;4201311;28;20032;-85
2022/11/05 04:24:06;;;;;;;12.77;1.20;;;5.90;77.40;;;;;;4200816;28;20127;-85
2022/11/05 04:24:07;;;;;;;15.18;1.38;;;5.90;77.40;;;;;;4202318;28;20028;-84
2022/11/05 04:26:27;;;;;;;6.95;0.95;;;5.90;77.50;;;;;;4205903;28;20043;-85
2022/11/05 04:31:28;;;;;;;7.80;1.00;;;5.90;77.50;;;;;;4205533;28;20051;-84
2022/11/05 04:33:49;;;;;;;9.23;1.13;;;5.90;77.60;;;;;;4206478;28;20047;-84
2022/11/05 04:36:09;;;;;;;8.43;1.50;;;5.90;77.60;;;;;;4204205;28;20024;-84
2022/11/05 04:38:30;;;;;;;9.63;1.80;;;5.90;77.80;;;;;;4198268;28;20028;-85
2022/11/05 04:40:51;;;;;;;10.95;1.45;;;5.90;77.70;;;;;;4204111;28;20059;-85
2022/11/05 04:43:14;;;;;;;13.77;1.30;;;5.90;77.60;;;;;;4202779;28;20071;-85
2022/11/05 04:45:35;;;;;;;6.68;1.20;;;5.90;77.60;;;;;;4202403;28;20106;-85
2022/11/05 04:47:56;;;;;;;8.20;1.23;;;6.00;77.70;;;;;;4205984;28;20028;-85
2022/11/05 04:50:17;;;;;;;5.50;0.85;;;6.00;77.60;;;;;;4200491;28;20024;-85
2022/11/05 04:52:38;;;;;;;8.02;0.82;;;5.90;77.50;;;;;;4213156;28;20101;-85
2022/11/05 04:54:59;;;;;;;7.32;0.93;;;6.00;77.60;;;;;;4202042;28;20024;-84
2022/11/05 04:57:20;;;;;;;6.60;1.25;;;5.90;77.40;;;;;;4196151;28;20036;-85
2022/11/05 04:59:40;;;;;;;7.38;1.10;;;5.90;77.50;;;;;;4211510;28;20031;-83
2022/11/05 05:02:01;;;;;;;14.55;1.20;;;5.90;77.50;;;;;;4203062;28;20042;-85
2022/11/05 05:04:21;;;;;;;7.13;1.20;;;5.90;77.50;;;;;;4198532;28;20040;-85
2022/11/05 05:06:42;;;;;;;6.70;0.90;;;6.00;77.50;;;;;;4201570;28;20461;-85
2022/11/05 05:09:03;;;;;;;6.03;1.20;;;6.10;77.60;;;;;;4199804;28;20063;-85
2022/11/05 05:11:06;;;;;;;7.10;1.17;;;6.00;77.40;;;;;;4200201;28;20028;-86
2022/11/05 05:13:09;;;;;;;6.72;1.40;;;5.90;77.40;;;;;;4201158;28;20090;-84
2022/11/05 05:15:10;;;;;;;6.55;1.20;;;5.90;77.30;;;;;;4201633;28;20029;-84
2022/11/05 05:17:11;;;;;;;8.80;1.10;;;5.90;77.20;;;;;;4199875;28;20025;-85
2022/11/05 05:19:11;;;;;;;6.43;1.08;;;5.90;77.20;;;;;;4197440;28;20028;-85
2022/11/05 05:23:32;;;;;;;10.70;1.17;;;5.90;77.20;;;;;;4203577;28;20490;-85
2022/11/05 05:25:33;;;;;;;5.20;0.70;;;5.90;77.20;;;;;;4200289;28;20268;-84
2022/11/05 05:27:34;;;;;;;8.48;1.50;;;5.90;77.20;;;;;;4198682;28;20032;-84
2022/11/05 05:29:35;;;;;;;8.98;0.80;;;5.90;78.00;;;;;;4193761;28;20573;-85
2022/11/05 05:31:36;;;;;;;10.18;1.10;;;5.90;77.30;;;;;;4197076;28;20079;-85
2022/11/05 05:33:38;;;;;;;6.43;1.05;;;5.90;77.40;;;;;;4203984;28;20061;-84
2022/11/05 05:35:40;;;;;;;6.82;1.20;;;6.00;77.40;;;;;;4202998;28;20032;-84
2022/11/05 05:37:56;;;;;;;9.55;1.05;;;5.90;77.40;;;;;;4204958;28;20032;-84
2022/11/05 05:40:00;;;;;;;8.63;0.90;;;5.90;77.40;;;;;;4201196;28;20025;-84
2022/11/05 05:42:21;;;;;;;8.82;0.88;;;5.90;77.30;;;;;;4201630;28;20471;-85
2022/11/05 05:44:42;;;;;;;8.10;1.10;;;5.90;77.30;;;;;;4204064;28;20430;-84
2022/11/05 05:47:03;;;;;;;10.70;1.38;;;5.90;77.20;;;;;;4199577;28;20396;-83
2022/11/05 05:49:24;;;;;;;6.80;1.10;;;5.90;77.10;;;;;;4194089;28;20553;-83
2022/11/05 05:51:46;;;;;;;7.82;1.00;;;5.90;77.10;;;;;;4185442;28;21021;-85
2022/11/05 05:54:07;;;;;;;4.13;0.80;;;5.80;77.10;;;;;;4198889;28;20723;-85
2022/11/05 05:56:13;;;;;;;8.82;1.20;;;5.80;77.10;;;;;;4201631;28;20032;-84
2022/11/05 05:58:36;;;;;;;8.90;1.05;;;5.80;77.10;;;;;;4202204;28;20133;-84
2022/11/05 06:01:07;;;;;;;8.63;1.20;;;5.80;77.10;;;;;;4203283;28;21673;-85
2022/11/05 06:03:27;;;;;;;8.05;1.00;;;5.80;77.80;;;;;;4205413;28;20459;-84
2022/11/05 06:05:48;;;;;;;6.63;0.80;;;5.80;76.90;;;;;;4201093;28;20583;-84
2022/11/05 06:08:09;;;;;;;7.97;1.10;;;5.80;77.00;;;;;;4204146;28;20646;-84
2022/11/05 06:10:30;;;;;;;12.65;1.33;;;5.80;77.00;;;;;;4192545;28;20630;-84
2022/11/05 06:12:50;;;;;;;3.88;0.70;;;5.80;77.10;;;;;;4195613;28;20424;-85
2022/11/05 06:15:11;;;;;;;7.60;1.10;;;5.80;77.00;;;;;;4199991;28;20031;-85
2022/11/05 06:17:32;;;;;;;9.10;1.17;;;5.70;77.00;;;;;;4199609;28;20039;-85
2022/11/05 06:19:32;;;;;;;9.55;1.20;;;5.90;77.10;;;;;;4198963;28;20029;-84
2022/11/05 06:21:34;;;;;;;8.60;1.48;;;5.70;77.10;;;;;;4188591;28;20020;-86
2022/11/05 06:23:37;;;;;;;12.10;1.35;;;5.70;77.30;;;;;;4186573;28;20891;-84
2022/11/05 06:25:38;;;;;;;10.55;1.10;;;5.70;77.30;;;;;;4194264;28;20416;-84
2022/11/05 06:27:39;;;;;;;5.82;1.33;;;5.70;77.30;;;;;;4201673;28;20025;-85
2022/11/05 06:29:59;;;;;;;7.53;1.00;;;5.70;77.50;;;;;;4201137;28;20024;-84
2022/11/05 06:32:20;;;;;;;10.13;1.10;;;5.70;77.50;;;;;;4219347;28;20092;-84
2022/11/05 06:34:41;;;;;;;13.52;1.55;;;5.70;77.60;;;;;;4201843;28;20064;-84
2022/11/05 06:37:01;;;;;;;5.38;0.68;;;5.70;78.30;;;;;;4198998;28;20512;-85
2022/11/05 06:39:22;;;;;;;7.00;0.88;;;5.70;77.70;;;;;;4196205;28;20043;-84
2022/11/05 06:41:43;;;;;;;7.95;1.10;;;5.70;77.60;;;;;;4200307;28;20032;-86
2022/11/05 06:44:04;;;;;;;10.70;1.17;;;5.70;77.60;;;;;;4197626;28;20032;-84
2022/11/05 06:46:24;;;;;;;10.70;1.02;;;5.70;77.60;;;;;;4194505;28;20020;-85
2022/11/05 06:48:46;;;;;;;7.70;1.00;;;5.70;77.70;;;;;;4197391;28;20097;-83
2022/11/05 06:51:07;;;;;;;6.40;1.00;;;5.70;77.80;;;;;;4199386;28;20563;-84
2022/11/05 06:53:28;;;;;;;8.02;1.10;;;5.80;78.00;;;;;;4199603;28;20122;-84
2022/11/05 06:55:48;;;;;;;9.40;1.58;;;5.70;77.80;;;;;;4196169;28;20738;-84
2022/11/05 06:58:09;;;;;;;9.35;1.13;;;5.70;77.90;;;;;;4195372;28;20170;-84
2022/11/05 07:00:30;;;;;;;6.43;0.95;;;5.70;78.00;;;;;;4195360;28;20067;-85
2022/11/05 07:02:31;;;;;;;11.82;1.30;;;5.70;78.00;;;;;;4201981;28;20077;-84
2022/11/05 07:04:32;;;;;;;6.75;0.82;;;5.70;78.00;;;;;;4179034;28;20040;-85
2022/11/05 07:06:34;;;;;;;9.68;1.10;;;5.70;78.10;;;;;;4212731;27;20043;-84
2022/11/05 07:08:36;;;;;;;9.95;0.93;;;5.70;78.10;;;;;;4208777;27;20050;-85
2022/11/05 07:10:37;;;;;;;7.78;0.93;;;5.80;78.20;;;;;;4196807;28;20060;-85
2022/11/05 07:12:38;;;;;;;6.10;0.95;;;5.80;78.30;;;;;;4182671;28;20029;-85
2022/11/05 07:14:38;;;;;;;7.05;1.10;;;5.80;78.40;;;;;;4200326;28;20057;-85
2022/11/05 07:16:39;;;;;;;9.02;1.20;;;5.80;78.50;;;;;;4198343;28;20712;-84
2022/11/05 07:18:40;;;;;;;5.68;0.80;;;5.80;78.60;;;;;;4185863;28;20481;-85
2022/11/05 07:20:41;;;;;;;9.13;1.20;;;5.80;78.60;;;;;;4199755;28;20024;-85
2022/11/05 07:22:42;;;;;;;9.70;1.08;;;5.90;78.70;;;;;;4196504;28;20039;-84
2022/11/05 07:24:45;;;;;;;7.05;1.20;;;5.90;78.70;;;;;;4196487;28;20020;-84
2022/11/05 07:26:55;;;;;;;12.57;1.37;;;5.90;78.70;;;;;;4179841;28;20696;-85
2022/11/05 07:29:16;;;;;;;8.52;1.25;;;5.90;78.70;;;;;;4198753;28;20284;-84
2022/11/05 07:31:36;;;;;;;6.32;1.02;;;6.00;78.90;;;;;;4200366;28;20035;-84
2022/11/05 07:33:58;;;;;;;5.63;0.85;;;6.00;78.90;;;;;;4195027;28;20110;-84
2022/11/05 07:36:18;;;;;;;9.43;1.33;;;6.00;78.90;;;;;;4195219;28;20047;-84
2022/11/05 07:38:39;;;;;;;7.25;0.70;;;6.00;79.10;;;;;;4197152;28;20063;-84
2022/11/05 07:41:00;;;;;;;8.48;1.45;;;6.10;79.10;;;;;;4199237;28;20036;-84
2022/11/05 07:43:21;;;;;;;6.78;1.00;;;6.10;79.00;;;;;;4196189;28;20041;-83
2022/11/05 07:45:44;;;;;;;10.52;1.40;;;6.10;79.00;;;;;;4198238;28;20028;-86
2022/11/05 07:48:05;;;;;;;8.10;1.25;;;6.20;79.10;;;;;;4195939;28;20122;-84
2022/11/05 07:50:07;;;;;;;13.80;1.20;;;6.20;79.20;;;;;;4197246;28;20037;-85
2022/11/05 07:52:07;;;;;;;8.52;1.05;;;6.20;79.10;;;;;;4187080;28;20095;-84
2022/11/05 07:54:08;;;;;;;6.55;1.20;;;6.30;79.40;;;;;;4187565;28;20012;-84
2022/11/05 07:56:10;;;;;;;8.98;1.27;;;6.30;79.40;;;;;;4206102;28;20166;-84
2022/11/05 07:58:12;;;;;;;13.07;1.20;;;6.30;79.40;;;;;;4218089;27;20023;-85
2022/11/05 08:00:16;;;;;;;7.60;1.33;;;6.40;79.40;;;;;;4201327;28;20115;-85
2022/11/05 08:02:19;;;;;;;6.65;1.15;;;6.40;79.50;;;;;;4199373;28;20057;-84
2022/11/05 08:04:20;;;;;;;7.35;0.95;;;6.40;79.50;;;;;;4216688;28;20050;-84
2022/11/05 08:06:21;;;;;;;5.30;1.35;;;6.50;79.50;;;;;;4207610;28;20418;-85
2022/11/05 08:08:22;;;;;;;6.82;1.20;;;6.50;79.50;;;;;;4182089;28;20036;-84
2022/11/05 08:10:30;;;;;;;15.93;1.65;;;6.50;79.50;;;;;;4183800;28;20029;-85
2022/11/05 08:12:37;;;;;;;8.68;1.00;;;6.70;79.60;;;;;;4180178;28;20021;-85
2022/11/05 08:14:57;;;;;;;8.15;1.30;;;6.60;79.60;;;;;;4194608;28;20051;-85
2022/11/05 08:17:18;;;;;;;13.73;1.20;;;6.60;79.60;;;;;;4197578;28;20036;-84
2022/11/05 08:19:39;;;;;;;7.80;1.27;;;6.70;79.80;;;;;;4202484;28;20070;-85
2022/11/05 08:22:00;;;;;;;13.43;1.23;;;6.70;79.60;;;;;;4199525;28;20056;-84
2022/11/05 08:24:19;;;;;;;10.23;1.23;;;6.90;79.70;;;;;;4196292;28;20053;-84
2022/11/05 08:26:39;;;;;;;13.05;1.08;;;6.80;79.70;;;;;;4196114;28;20872;-85
2022/11/05 08:29:00;;;;;;;8.20;1.20;;;6.80;79.80;;;;;;4197072;28;20221;-86
2022/11/05 08:31:21;;;;;;;9.43;1.15;;;6.90;80.00;;;;;;4195544;28;20119;-85
2022/11/05 08:33:41;;;;;;;6.07;1.38;;;6.90;79.90;;;;;;4200873;28;20076;-86
2022/11/05 08:36:03;;;;;;;5.97;1.00;;;7.00;79.90;;;;;;4192387;28;20063;-86
2022/11/05 08:38:24;;;;;;;3.83;0.75;;;7.00;80.00;;;;;;4199168;28;20043;-86
2022/11/05 08:40:52;;;;;;;6.78;1.23;;;7.10;80.00;;;;;;4198575;28;20024;-86
2022/11/05 08:43:13;;;;;;;6.47;1.10;;;7.10;79.90;;;;;;4198810;28;20027;-85
2022/11/05 08:45:25;;;;;;;9.18;1.00;;;7.30;80.00;;;;;;4211288;28;20119;-85
2022/11/05 08:47:26;;;;;;;8.55;0.90;;;7.20;80.00;;;;;;4197739;28;20531;-85
2022/11/05 08:49:46;;;;;;;13.27;1.10;;;7.30;80.30;;;;;;4199883;28;20059;-86
2022/11/05 08:52:07;;;;;;;6.28;1.05;;;7.30;80.10;;;;;;4196395;28;20066;-86
2022/11/05 08:54:08;;;;;;;6.68;0.90;;;7.40;80.20;;;;;;4204417;28;20093;-86
2022/11/05 08:56:09;;;;;;;9.73;1.80;;;7.40;80.30;;;;;;4198119;28;20488;-85
2022/11/05 08:58:13;;;;;;;7.32;1.45;;;7.50;80.40;;;;;;4201945;28;20077;-86
2022/11/05 09:00:35;;;;;;;8.43;1.33;;;7.50;80.30;;;;;;4198444;28;20047;-86
2022/11/05 09:03:01;;;;;;;10.68;1.08;;;7.60;80.40;;;;;;4199531;28;20420;-86
2022/11/05 09:05:22;;;;;;;8.60;0.75;;;7.70;80.40;;;;;;4200355;28;20043;-86
2022/11/05 09:07:43;;;;;;;4.88;1.00;;;7.70;80.30;;;;;;4201893;28;20032;-86
2022/11/05 09:10:04;;;;;;;6.85;1.10;;;7.80;80.20;;;;;;4194439;28;20118;-86
2022/11/05 09:12:25;;;;;;;9.98;1.08;;;7.90;80.30;;;;;;4203780;28;20071;-85
2022/11/05 09:14:46;;;;;;;7.72;1.00;;;7.90;80.30;;;;;;4202041;28;20025;-86
2022/11/05 09:17:20;;;;;;;6.38;0.88;;;8.00;80.50;;;;;;4200218;28;20032;-86
2022/11/05 09:19:41;;;;;;;4.05;0.73;;;8.20;80.70;;;;;;4197001;28;20039;-86
2022/11/05 09:21:42;;;;;;;9.80;1.00;;;8.10;80.50;;;;;;4199977;28;20403;-86
2022/11/05 09:23:44;;;;;;;10.13;0.85;;;8.20;80.50;;;;;;4194790;28;20107;-86
2022/11/05 09:25:45;;;;;;;10.43;1.50;;;8.30;80.50;;;;;;4188443;28;20040;-86
2022/11/05 09:27:45;;;;;;;9.80;1.70;;;8.30;80.40;;;;;;4188088;28;20020;-86
2022/11/05 09:29:46;;;;;;;8.15;1.42;;;8.40;81.20;;;;;;4196049;28;20052;-86
2022/11/05 09:31:47;;;;;;;12.93;2.42;;;8.50;80.40;;;;;;4201051;28;20464;-86
2022/11/05 09:33:47;;;;;;;5.60;1.60;;;8.50;80.30;;;;;;4196028;28;20127;-86
2022/11/05 09:35:48;;;;;;;6.75;1.70;;;8.60;80.30;;;;;;4193148;28;21294;-87
2022/11/05 09:37:49;;;;;;;5.90;0.98;;;8.70;80.30;;;;;;4186776;28;20217;-86
2022/11/05 09:39:51;;;;;;;3.53;1.17;;;8.80;80.20;;;;;;4199436;28;20435;-87
2022/11/05 09:41:54;;;;;;;6.35;1.25;;;8.90;80.10;;;;;;4198988;28;20025;-86
2022/11/05 09:44:11;;;;;;;11.80;0.90;;;8.90;80.00;;;;;;4196771;28;20024;-86
2022/11/05 09:46:50;;;;;;;4.82;1.00;;;9.00;79.90;;;;;;4200199;28;20601;-85
2022/11/05 09:48:54;;;;;;;4.90;0.93;;;9.10;79.80;;;;;;4207126;28;20020;-87
2022/11/05 09:51:15;;;;;;;5.07;0.90;;;9.10;79.70;;;;;;4199494;28;20024;-86
2022/11/05 09:53:18;;;;;;;4.47;1.05;;;9.20;79.60;;;;;;4205394;28;20073;-86
2022/11/05 09:55:48;;;;;;;7.45;1.13;;;9.30;79.60;;;;;;4204240;28;20032;-86
2022/11/05 09:58:21;;;;;;;6.85;1.08;;;9.40;79.40;;;;;;4206116;28;20074;-87
2022/11/05 10:00:43;;;;;;;5.75;1.00;;;9.50;79.20;;;;;;4206012;28;20058;-87
2022/11/05 10:03:09;;;;;;;8.57;1.13;;;9.50;78.90;;;;;;4202948;28;20071;-87
2022/11/05 10:05:32;;;;;;;7.63;0.90;;;9.50;78.60;;;;;;4205353;28;20025;-86
2022/11/05 10:08:02;;;;;;;10.98;1.50;;;9.60;78.40;;;;;;4203937;28;20028;-87
2022/11/05 10:10:37;;;;;;;3.67;0.90;;;9.60;78.10;;;;;;4202580;28;20067;-86
2022/11/05 10:13:24;;;;;;;4.68;0.80;;;9.70;77.90;;;;;;4204782;28;20043;-86
2022/11/05 10:15:57;;;;;;;9.98;0.93;;;9.70;77.70;;;;;;4205625;28;20028;-86
2022/11/05 10:18:27;;;;;;;5.22;0.80;;;9.70;77.60;;;;;;4204140;28;20071;-87
2022/11/05 10:20:48;;;;;;;4.20;0.70;;;9.70;77.70;;;;;;4201743;28;20028;-87
2022/11/05 10:23:14;;;;;;;10.32;0.85;;;9.90;78.50;;;;;;4203994;28;20055;-87
2022/11/05 10:25:42;;;;;;;3.30;0.75;;;9.90;77.60;;;;;;4201782;28;20033;-86
2022/11/05 10:28:05;;;;;;;2.10;0.50;;;9.90;77.50;;;;;;4205525;28;20112;-86
2022/11/05 10:30:26;;;;;;;2.03;0.40;;;10.00;77.40;;;;;;4202593;28;20044;-86
2022/11/05 10:32:50;;;;;;;4.25;0.70;;;10.10;77.40;;;;;;4203639;28;20077;-86
2022/11/05 10:35:17;;;;;;;1.88;0.35;;;10.10;77.30;;;;;;4204667;28;20029;-86
2022/11/05 10:37:21;;;;;;;4.63;0.47;;;10.20;77.10;;;;;;4197740;28;20073;-87
2022/11/05 10:39:23;;;;;;;4.03;0.47;;;10.20;76.80;;;;;;4176454;28;20123;-86
2022/11/05 10:41:41;;;;;;;7.57;0.50;;;10.30;76.60;;;;;;4178796;28;20032;-87
2022/11/05 10:44:25;;;;;;;8.88;0.90;;;10.40;76.40;;;;;;4182831;28;20127;-87
2022/11/05 10:47:17;;;;;;;0.77;0.15;;;10.50;76.10;;;;;;4201307;28;20064;-87
2022/11/05 10:49:57;;;;;;;1.58;0.30;;;10.60;76.10;;;;;;4189119;28;20036;-86
2022/11/05 10:52:23;;;;;;;1.45;0.50;;;10.70;75.40;;;;;;4206147;28;20032;-85
2022/11/05 10:54:44;;;;;;;2.00;0.32;;;10.70;75.20;;;;;;4204336;28;20490;-87
2022/11/05 10:57:38;;;;;;;5.18;0.40;;;10.80;74.90;;;;;;4204426;28;20028;-87
2022/11/05 11:00:17;;;;;;;4.38;0.50;;;10.90;73.40;;;;;;4205655;28;20062;-87
2022/11/05 11:02:37;;;;;;;5.70;0.40;;;11.00;72.50;;;;;;4205394;28;20055;-87
2022/11/05 11:04:58;;;;;;;1.73;0.40;;;11.00;72.60;;;;;;4200848;28;20028;-86
2022/11/05 11:07:22;;;;;;;2.35;0.40;;;11.20;72.50;;;;;;4198802;28;20032;-87
2022/11/05 11:09:30;;;;;;;5.30;0.55;;;11.20;72.50;;;;;;4202145;28;20146;-87
2022/11/05 11:12:19;;;;;;;3.70;0.70;;;11.20;72.20;;;;;;4200794;28;20028;-87
2022/11/05 11:14:39;;;;;;;1.45;0.30;;;11.30;71.80;;;;;;4204904;28;20174;-87
2022/11/05 11:16:46;;;;;;;2.97;0.30;;;11.40;72.10;;;;;;4217591;28;20016;-87
2022/11/05 11:19:28;;;;;;;3.05;0.52;;;11.50;71.90;;;;;;4209441;28;20139;-87
2022/11/05 11:22:04;;;;;;;3.10;0.20;;;11.50;71.10;;;;;;4199829;28;20051;-83
2022/11/05 11:24:26;;;;;;;4.72;0.40;;;11.60;71.00;;;;;;4199733;28;20104;-85
2022/11/05 11:26:46;;;;;;;3.13;0.32;;;11.70;71.40;;;;;;4199304;28;20027;-85
2022/11/05 11:29:27;;;;;;;2.08;0.32;;;11.80;71.50;;;;;;4200647;28;20115;-85
2022/11/05 11:31:47;;;;;;;3.22;0.35;;;11.80;70.80;;;;;;4204200;28;20032;-85
2022/11/05 11:34:15;;;;;;;4.90;0.50;;;11.90;71.10;;;;;;4200680;28;20028;-85
2022/11/05 11:36:47;;;;;;;2.08;0.40;;;11.90;70.80;;;;;;4204414;28;20059;-85
2022/11/05 11:38:48;;;;;;;4.93;0.60;;;11.90;70.20;;;;;;4222367;27;20165;-87
2022/11/05 11:40:49;;;;;;;3.67;0.60;;;12.10;70.00;;;;;;4187544;28;20024;-87
2022/11/05 11:42:59;;;;;;;3.58;0.35;;;12.00;69.80;;;;;;4186039;28;20117;-87
2022/11/05 11:45:30;;;;;;;;;;;12.00;69.50;;;;;;4200977;28;20029;-85
2022/11/05 11:47:32;;;;;;;7.22;0.50;;;12.00;68.20;;;;;;4197932;28;20576;-85
2022/11/05 11:49:57;;;;;;;5.38;0.50;;;12.10;69.40;;;;;;4202367;28;20112;-84
2022/11/05 11:52:36;;;;;;;5.30;0.70;;;12.10;69.20;;;;;;4201534;28;20078;-84
2022/11/05 11:55:26;;;;;;;4.30;0.60;;;12.10;68.60;;;;;;4195520;28;20081;-88
2022/11/05 11:57:53;;;;;;;2.92;0.22;;;12.10;67.90;;;;;;4198359;28;20415;-84
2022/11/05 11:59:56;;;;;;;6.55;0.50;;;12.10;68.60;;;;;;4183766;28;20580;-85
2022/11/05 12:02:49;;;;;;;1.13;0.25;;;12.10;68.90;;;;;;4200451;28;20416;-85
2022/11/05 12:05:32;;;;;;;8.05;0.35;;;12.10;68.10;;;;;;4203373;28;20086;-85
2022/11/05 12:08:04;;;;;;;3.25;0.32;;;12.20;68.50;;;;;;4203222;28;20885;-87
2022/11/05 12:10:41;;;;;;;5.75;0.52;;;12.20;68.90;;;;;;4202263;28;20123;-85
2022/11/05 12:13:04;;;;;;;3.13;0.45;;;12.20;68.30;;;;;;4194571;28;20439;-85
2022/11/05 12:15:53;;;;;;;2.65;0.43;;;12.20;68.00;;;;;;4201294;28;20035;-86
2022/11/05 12:18:44;;;;;;;5.72;0.82;;;12.30;67.50;;;;;;4201663;28;20456;-87
2022/11/05 12:21:12;;;;;;;4.22;0.65;;;12.20;68.00;;;;;;4202985;28;20252;-87
2022/11/05 12:23:57;;;;;;;3.92;0.68;;;12.30;68.20;;;;;;4200787;28;20756;-88
2022/11/05 12:26:43;;;;;;;3.53;0.60;;;12.30;68.40;;;;;;4197544;28;20043;-87
2022/11/05 12:29:28;;;;;;;4.15;0.40;;;12.40;68.50;;;;;;4200377;28;20651;-85
2022/11/05 12:31:55;;;;;;;;;;;12.40;67.80;;;;;;4203172;28;20071;-85
2022/11/05 12:34:41;;;;;;;5.82;0.57;;;12.40;67.00;;;;;;4200781;28;20416;-84
2022/11/05 12:37:13;;;;;;;6.07;0.60;;;12.50;67.50;;;;;;4205845;28;20079;-86
2022/11/05 12:39:37;;;;;;;7.13;0.60;;;12.50;67.30;;;;;;4205015;28;20469;-87
2022/11/05 12:42:15;;;;;;;4.30;0.63;;;12.50;67.00;;;;;;4205750;28;20450;-85
2022/11/05 12:44:38;;;;;;;4.55;0.77;;;12.50;65.80;;;;;;4203735;28;20301;-86